createdAt,value
2022-10-17T00:01:45.503Z,100.00
2022-10-17T00:04:12.017Z,100.00
2022-10-17T00:06:39.815Z,100.00
2022-10-17T00:09:06.158Z,100.00
2022-10-17T00:11:32.680Z,100.00
2022-10-17T00:13:59.068Z,100.00
2022-10-17T00:16:30.154Z,100.00
2022-10-17T00:18:56.977Z,100.00
2022-10-17T00:21:23.989Z,100.00
2022-10-17T00:23:50.487Z,100.00
2022-10-17T00:26:16.975Z,100.00
2022-10-17T00:28:46.144Z,100.00
2022-10-17T00:31:12.513Z,100.00
2022-10-17T00:33:39.297Z,100.00
2022-10-17T00:36:12.690Z,100.00
2022-10-17T00:38:39.881Z,100.00
2022-10-17T00:41:06.495Z,100.00
2022-10-17T00:43:51.678Z,100.00
2022-10-17T00:46:18.173Z,100.00
2022-10-17T00:48:45.325Z,100.00
2022-10-17T00:51:11.831Z,100.00
2022-10-17T00:53:39.396Z,100.00
2022-10-17T00:56:06.005Z,100.00
2022-10-17T00:58:32.426Z,100.00
2022-10-17T01:00:58.807Z,100.00
2022-10-17T01:03:25.180Z,100.00
2022-10-17T01:05:51.717Z,100.00
2022-10-17T01:08:18.106Z,100.00
2022-10-17T01:11:03.106Z,100.00
2022-10-17T01:13:44.984Z,100.00
2022-10-17T01:16:19.056Z,100.00
2022-10-17T01:19:05.649Z,100.00
2022-10-17T01:21:32.150Z,100.00
2022-10-17T01:24:29.855Z,100.00
2022-10-17T01:27:19.608Z,100.00
2022-10-17T01:30:04.897Z,100.00
2022-10-17T01:32:49.679Z,100.00
2022-10-17T01:35:21.969Z,100.00
2022-10-17T01:40:22.049Z,100.00
2022-10-17T01:42:59.879Z,100.00
2022-10-17T01:46:02.739Z,100.00
2022-10-17T01:48:35.600Z,100.00
2022-10-17T01:51:06.752Z,100.00
2022-10-17T01:53:56.355Z,100.00
2022-10-17T01:56:25.106Z,100.00
2022-10-17T01:58:55.423Z,100.00
2022-10-17T02:01:22.117Z,100.00
2022-10-17T02:03:49.544Z,100.00
2022-10-17T02:06:15.888Z,100.00
2022-10-17T02:08:46.679Z,100.00
2022-10-17T02:11:13.064Z,100.00
2022-10-17T02:13:48.361Z,100.00
2022-10-17T02:16:32.839Z,100.00
2022-10-17T02:19:28.446Z,100.00
2022-10-17T02:22:24.045Z,100.00
2022-10-17T02:24:54.807Z,100.00
2022-10-17T02:27:32.446Z,100.00
2022-10-17T02:30:23.627Z,100.00
2022-10-17T02:32:53.470Z,100.00
2022-10-17T02:35:20.874Z,100.00
2022-10-17T02:37:47.556Z,100.00
2022-10-17T02:40:15.420Z,100.00
2022-10-17T02:42:44.114Z,100.00
2022-10-17T02:45:11.193Z,100.00
2022-10-17T02:47:58.783Z,100.00
2022-10-17T02:50:32.228Z,100.00
2022-10-17T02:53:01.191Z,100.00
2022-10-17T02:55:36.415Z,100.00
2022-10-17T02:58:06.648Z,100.00
2022-10-17T03:00:34.940Z,100.00
2022-10-17T03:03:01.280Z,100.00
2022-10-17T03:05:28.825Z,100.00
2022-10-17T03:07:55.793Z,100.00
2022-10-17T03:10:22.643Z,100.00
2022-10-17T03:12:49.055Z,100.00
2022-10-17T03:15:15.421Z,100.00
2022-10-17T03:17:41.861Z,100.00
2022-10-17T03:20:08.365Z,100.00
2022-10-17T03:22:34.692Z,100.00
2022-10-17T03:25:01.029Z,100.00
2022-10-17T03:27:27.677Z,100.00
2022-10-17T03:29:54.261Z,100.00
2022-10-17T03:32:20.620Z,100.00
2022-10-17T03:34:47.129Z,100.00
2022-10-17T03:37:13.501Z,100.00
2022-10-17T03:39:39.900Z,100.00
2022-10-17T03:42:06.204Z,100.00
2022-10-17T03:44:32.516Z,100.00
2022-10-17T03:46:58.910Z,100.00
2022-10-17T03:49:25.254Z,100.00
2022-10-17T03:51:51.656Z,100.00
2022-10-17T03:54:18.079Z,100.00
2022-10-17T03:56:44.594Z,100.00
2022-10-17T03:59:14.578Z,100.00
2022-10-17T04:01:41.434Z,100.00
2022-10-17T04:04:08.462Z,100.00
2022-10-17T04:06:34.924Z,100.00
2022-10-17T04:09:01.671Z,100.00
2022-10-17T04:11:28.371Z,100.00
2022-10-17T04:13:55.559Z,100.00
2022-10-17T04:16:22.457Z,100.00
2022-10-17T04:18:52.671Z,100.00
2022-10-17T04:21:19.334Z,100.00
2022-10-17T04:23:45.660Z,100.00
2022-10-17T04:26:11.972Z,100.00
2022-10-17T04:28:40.867Z,100.00
2022-10-17T04:31:08.352Z,100.00
2022-10-17T04:33:35.028Z,100.00
2022-10-17T04:36:05.705Z,100.00
2022-10-17T04:38:33.530Z,100.00
2022-10-17T04:41:03.170Z,100.00
2022-10-17T04:43:33.469Z,100.00
2022-10-17T04:46:00.454Z,100.00
2022-10-17T04:48:27.827Z,100.00
2022-10-17T04:51:01.545Z,100.00
2022-10-17T04:53:28.625Z,100.00
2022-10-17T04:55:54.992Z,100.00
2022-10-17T04:58:21.575Z,100.00
2022-10-17T05:00:47.997Z,100.00
2022-10-17T05:03:14.562Z,100.00
2022-10-17T05:05:41.675Z,100.00
2022-10-17T05:08:09.330Z,100.00
2022-10-17T05:10:36.689Z,100.00
2022-10-17T05:13:03.228Z,100.00
2022-10-17T05:15:29.632Z,100.00
2022-10-17T05:17:56.474Z,100.00
2022-10-17T05:20:23.274Z,100.00
2022-10-17T05:22:49.813Z,100.00
2022-10-17T05:25:16.153Z,100.00
2022-10-17T05:27:42.634Z,100.00
2022-10-17T05:30:09.209Z,100.00
2022-10-17T05:32:35.687Z,100.00
2022-10-17T05:35:03.828Z,100.00
2022-10-17T05:37:30.933Z,100.00
2022-10-17T05:39:57.544Z,100.00
2022-10-17T05:42:24.119Z,100.00
2022-10-17T05:44:50.519Z,100.00
2022-10-17T05:47:17.056Z,100.00
2022-10-17T05:49:48.650Z,100.00
2022-10-17T05:52:18.527Z,100.00
2022-10-17T05:54:44.872Z,100.00
2022-10-17T05:57:11.488Z,100.00
2022-10-17T05:59:37.803Z,100.00
2022-10-17T06:02:04.270Z,100.00
2022-10-17T06:04:30.633Z,100.00
2022-10-17T06:06:56.952Z,100.00
2022-10-17T06:09:23.775Z,100.00
2022-10-17T06:11:50.116Z,100.00
2022-10-17T06:14:16.553Z,100.00
2022-10-17T06:16:43.616Z,100.00
2022-10-17T06:19:11.785Z,100.00
2022-10-17T06:21:38.883Z,100.00
2022-10-17T06:24:05.404Z,100.00
2022-10-17T06:26:31.734Z,100.00
2022-10-17T06:28:58.147Z,100.00
2022-10-17T06:31:24.589Z,100.00
2022-10-17T06:33:51.018Z,100.00
2022-10-17T06:36:17.384Z,100.00
2022-10-17T06:38:43.891Z,100.00
2022-10-17T06:41:13.692Z,100.00
2022-10-17T06:43:40.739Z,100.00
2022-10-17T06:46:07.187Z,100.00
2022-10-17T06:48:33.800Z,100.00
2022-10-17T06:51:00.833Z,100.00
2022-10-17T06:53:28.571Z,100.00
2022-10-17T06:55:55.409Z,100.00
2022-10-17T06:58:22.716Z,100.00
2022-10-17T07:00:49.168Z,100.00
2022-10-17T07:03:15.622Z,100.00
2022-10-17T07:05:41.974Z,100.00
2022-10-17T07:08:08.792Z,100.00
2022-10-17T07:10:38.462Z,100.00
2022-10-17T07:13:04.793Z,100.00
2022-10-17T07:15:32.382Z,100.00
2022-10-17T07:17:58.735Z,100.00
2022-10-17T07:20:25.205Z,100.00
2022-10-17T07:22:51.617Z,95.04
2022-10-17T07:25:17.993Z,91.72
2022-10-17T07:27:44.322Z,88.34
2022-10-17T07:30:10.966Z,85.08
2022-10-17T07:32:37.345Z,85.12
2022-10-17T07:35:03.827Z,84.89
2022-10-17T07:37:30.593Z,85.92
2022-10-17T07:39:57.198Z,82.65
2022-10-17T07:42:23.980Z,82.56
2022-10-17T07:44:51.090Z,81.71
2022-10-17T07:47:17.479Z,81.79
2022-10-17T07:49:45.315Z,83.22
2022-10-17T07:52:12.348Z,81.06
2022-10-17T07:54:38.785Z,81.23
2022-10-17T07:57:05.510Z,82.77
2022-10-17T07:59:33.237Z,84.62
2022-10-17T08:02:00.735Z,82.52
2022-10-17T08:04:27.159Z,82.55
2022-10-17T08:06:56.656Z,82.65
2022-10-17T08:09:37.676Z,81.14
2022-10-17T08:12:04.095Z,81.25
2022-10-17T08:14:30.446Z,75.94
2022-10-17T08:16:56.783Z,73.92
2022-10-17T08:19:23.132Z,75.22
2022-10-17T08:21:50.104Z,72.41
2022-10-17T08:24:16.453Z,73.95
2022-10-17T08:26:44.614Z,71.78
2022-10-17T08:29:16.292Z,73.24
2022-10-17T08:31:46.552Z,71.44
2022-10-17T08:34:15.875Z,72.73
2022-10-17T08:36:42.264Z,73.13
2022-10-17T08:39:08.665Z,71.46
2022-10-17T08:41:38.015Z,71.29
2022-10-17T08:44:16.728Z,70.48
2022-10-17T08:46:45.359Z,69.15
2022-10-17T08:49:15.168Z,67.81
2022-10-17T08:51:47.887Z,70.06
2022-10-17T08:54:20.474Z,67.99
2022-10-17T08:56:49.778Z,66.74
2022-10-17T08:59:36.489Z,67.32
2022-10-17T09:02:09.017Z,66.55
2022-10-17T09:04:38.114Z,65.08
2022-10-17T09:07:04.804Z,65.00
2022-10-17T09:09:49.249Z,65.91
2022-10-17T09:12:15.948Z,64.81
2022-10-17T09:14:51.108Z,65.43
2022-10-17T09:17:37.758Z,65.06
2022-10-17T09:20:04.347Z,64.62
2022-10-17T09:22:34.794Z,62.76
2022-10-17T09:25:03.808Z,61.54
2022-10-17T09:27:44.566Z,61.90
2022-10-17T09:30:47.204Z,61.59
2022-10-17T09:33:28.279Z,59.80
2022-10-17T09:36:02.453Z,62.47
2022-10-17T09:38:34.597Z,59.56
2022-10-17T09:41:02.109Z,59.15
2022-10-17T09:43:28.643Z,57.78
2022-10-17T09:45:55.089Z,58.74
2022-10-17T09:48:43.271Z,57.88
2022-10-17T09:51:21.830Z,58.26
2022-10-17T09:53:55.754Z,58.82
2022-10-17T09:56:22.507Z,55.84
2022-10-17T09:58:53.449Z,56.95
2022-10-17T10:01:22.969Z,57.34
2022-10-17T10:04:10.933Z,59.26
2022-10-17T10:06:37.471Z,55.46
2022-10-17T10:09:05.570Z,55.63
2022-10-17T10:11:44.139Z,57.01
2022-10-17T10:14:20.184Z,57.10
2022-10-17T10:16:47.270Z,57.01
2022-10-17T10:19:21.425Z,56.45
2022-10-17T10:21:55.272Z,55.02
2022-10-17T10:24:21.825Z,54.82
2022-10-17T10:26:48.792Z,54.59
2022-10-17T10:29:24.353Z,57.07
2022-10-17T10:31:51.548Z,56.85
2022-10-17T10:34:17.848Z,55.42
2022-10-17T10:36:45.651Z,55.04
2022-10-17T10:39:27.141Z,55.07
2022-10-17T10:41:53.617Z,57.18
2022-10-17T10:44:22.963Z,54.96
2022-10-17T10:47:05.428Z,54.71
2022-10-17T10:49:32.452Z,55.68
2022-10-17T10:52:00.463Z,57.59
2022-10-17T10:54:33.935Z,58.62
2022-10-17T10:57:03.382Z,57.02
2022-10-17T10:59:36.019Z,54.77
2022-10-17T11:02:10.016Z,54.73
2022-10-17T11:04:40.777Z,58.86
2022-10-17T11:07:22.482Z,57.74
2022-10-17T11:10:07.336Z,57.63
2022-10-17T11:12:39.400Z,58.40
2022-10-17T11:15:08.852Z,57.61
2022-10-17T11:17:47.386Z,59.59
2022-10-17T11:20:28.719Z,56.18
2022-10-17T11:23:01.671Z,54.09
2022-10-17T11:25:32.869Z,57.82
2022-10-17T11:28:03.795Z,57.04
2022-10-17T11:30:39.934Z,56.06
2022-10-17T11:33:07.485Z,56.38
2022-10-17T11:35:38.733Z,55.12
2022-10-17T11:38:17.678Z,53.04
2022-10-17T11:40:45.508Z,55.52
2022-10-17T11:43:25.630Z,55.51
2022-10-17T11:46:15.268Z,54.54
2022-10-17T11:48:45.251Z,53.67
2022-10-17T11:54:04.397Z,54.56
2022-10-17T11:56:50.988Z,56.45
2022-10-17T11:59:35.847Z,57.94
2022-10-17T12:02:04.951Z,56.57
2022-10-17T12:04:31.401Z,57.09
2022-10-17T12:07:16.611Z,56.26
2022-10-17T12:09:46.163Z,57.43
2022-10-17T12:12:23.717Z,56.06
2022-10-17T12:14:50.081Z,54.59
2022-10-17T12:17:28.807Z,56.09
2022-10-17T12:20:15.199Z,59.84
2022-10-17T12:22:47.038Z,56.59
2022-10-17T12:25:33.814Z,55.49
2022-10-17T12:28:06.269Z,55.55
2022-10-17T12:30:32.917Z,56.48
2022-10-17T12:33:06.531Z,59.69
2022-10-17T12:35:35.406Z,58.28
2022-10-17T12:38:03.668Z,56.58
2022-10-17T12:40:35.824Z,60.24
2022-10-17T12:43:15.021Z,58.66
2022-10-17T12:45:53.693Z,58.61
2022-10-17T12:48:43.298Z,57.47
2022-10-17T12:51:34.192Z,60.18
2022-10-17T12:53:58.670Z,57.94
2022-10-17T12:56:36.428Z,59.43
2022-10-17T12:59:07.979Z,65.20
2022-10-17T13:01:36.761Z,62.10
2022-10-17T13:04:05.903Z,63.89
2022-10-17T13:06:39.922Z,61.39
2022-10-17T13:09:10.213Z,62.33
2022-10-17T13:11:37.860Z,59.75
2022-10-17T13:14:10.527Z,60.25
2022-10-17T13:16:38.271Z,60.43
2022-10-17T13:19:12.479Z,60.32
2022-10-17T13:21:38.818Z,60.69
2022-10-17T13:24:29.753Z,60.01
2022-10-17T13:26:56.295Z,61.06
2022-10-17T13:29:25.588Z,61.60
2022-10-17T13:31:54.402Z,60.59
2022-10-17T13:34:22.541Z,61.67
2022-10-17T13:36:54.600Z,61.16
2022-10-17T13:39:38.419Z,61.58
2022-10-17T13:42:30.014Z,62.04
2022-10-17T13:44:57.810Z,63.28
2022-10-17T13:47:36.636Z,62.44
2022-10-17T13:50:09.455Z,63.64
2022-10-17T13:52:43.156Z,64.86
2022-10-17T13:55:17.476Z,62.80
2022-10-17T13:57:44.093Z,62.77
2022-10-17T14:00:16.602Z,64.70
2022-10-17T14:02:43.116Z,63.82
2022-10-17T14:05:18.552Z,64.72
2022-10-17T14:08:21.853Z,65.28
2022-10-17T14:10:49.734Z,63.93
2022-10-17T14:13:21.269Z,63.57
2022-10-17T14:15:47.683Z,67.09
2022-10-17T14:18:16.939Z,65.40
2022-10-17T14:21:31.788Z,66.24
2022-10-17T14:23:36.697Z,65.84
2022-10-17T14:26:08.991Z,64.30
2022-10-17T14:28:35.662Z,64.53
2022-10-17T14:31:31.431Z,66.42
2022-10-17T14:33:57.920Z,67.18
2022-10-17T14:36:32.211Z,65.67
2022-10-17T14:38:58.778Z,63.40
2022-10-17T14:41:43.557Z,63.08
2022-10-17T14:44:17.704Z,67.49
2022-10-17T14:46:49.568Z,68.02
2022-10-17T14:49:23.261Z,67.17
2022-10-17T14:52:11.427Z,67.28
2022-10-17T14:54:40.021Z,66.07
2022-10-17T14:57:15.711Z,65.39
2022-10-17T14:59:53.721Z,65.88
2022-10-17T15:02:21.221Z,65.66
2022-10-17T15:04:48.605Z,68.75
2022-10-17T15:07:15.881Z,70.68
2022-10-17T15:09:42.921Z,67.83
2022-10-17T15:12:18.470Z,69.48
2022-10-17T15:14:45.330Z,69.57
2022-10-17T15:17:14.096Z,68.42
2022-10-17T15:19:40.707Z,69.27
2022-10-17T15:22:07.031Z,71.41
2022-10-17T15:24:33.353Z,71.53
2022-10-17T15:26:59.738Z,74.31
2022-10-17T15:29:26.090Z,72.86
2022-10-17T15:31:52.420Z,75.18
2022-10-17T15:34:19.774Z,77.89
2022-10-17T15:36:50.537Z,82.23
2022-10-17T15:39:16.968Z,84.07
2022-10-17T15:41:44.020Z,81.81
2022-10-17T15:44:10.504Z,83.88
2022-10-17T15:46:39.428Z,83.58
2022-10-17T15:49:09.948Z,81.27
2022-10-17T15:51:36.274Z,78.37
2022-10-17T15:54:02.813Z,81.82
2022-10-17T15:56:31.088Z,84.77
2022-10-17T15:58:58.673Z,86.81
2022-10-17T16:01:27.005Z,85.65
2022-10-17T16:03:53.861Z,91.12
2022-10-17T16:06:21.357Z,89.15
2022-10-17T16:08:48.002Z,92.34
2022-10-17T16:11:17.979Z,91.63
2022-10-17T16:13:48.276Z,92.97
2022-10-17T16:16:15.667Z,92.26
2022-10-17T16:18:43.072Z,93.50
2022-10-17T16:21:12.507Z,95.91
2022-10-17T16:23:39.969Z,98.53
2022-10-17T16:26:07.179Z,100.00
2022-10-17T16:28:33.805Z,100.00
2022-10-17T16:31:00.158Z,100.00
2022-10-17T16:33:26.533Z,100.00
2022-10-17T16:35:53.224Z,100.00
2022-10-17T16:38:19.546Z,100.00
2022-10-17T16:40:45.895Z,100.00
2022-10-17T16:43:12.711Z,100.00
2022-10-17T16:45:39.372Z,100.00
2022-10-17T16:48:06.100Z,100.00
2022-10-17T16:50:35.556Z,100.00
2022-10-17T16:53:03.904Z,100.00
2022-10-17T16:55:30.229Z,100.00
2022-10-17T16:57:56.861Z,100.00
2022-10-17T17:00:23.259Z,100.00
2022-10-17T17:02:49.725Z,100.00
2022-10-17T17:05:16.167Z,100.00
2022-10-17T17:07:42.595Z,100.00
2022-10-17T17:10:09.295Z,100.00
2022-10-17T17:12:36.193Z,100.00
2022-10-17T17:15:03.510Z,100.00
2022-10-17T17:17:36.889Z,100.00
2022-10-17T17:20:11.262Z,100.00
2022-10-17T17:22:37.968Z,100.00
2022-10-17T17:25:04.495Z,100.00
2022-10-17T17:27:31.018Z,100.00
2022-10-17T17:29:57.545Z,100.00
2022-10-17T17:32:23.878Z,100.00
2022-10-17T17:34:50.233Z,100.00
2022-10-17T17:37:16.614Z,100.00
2022-10-17T17:39:43.022Z,100.00
2022-10-17T17:42:09.337Z,100.00
2022-10-17T17:44:35.666Z,100.00
2022-10-17T17:47:03.143Z,100.00
2022-10-17T17:49:29.782Z,100.00
2022-10-17T17:51:56.443Z,100.00
2022-10-17T17:54:23.873Z,100.00
2022-10-17T17:56:52.216Z,100.00
2022-10-17T17:59:18.649Z,100.00
2022-10-17T18:01:45.134Z,100.00
2022-10-17T18:04:11.564Z,100.00
2022-10-17T18:06:38.705Z,100.00
2022-10-17T18:09:05.833Z,100.00
2022-10-17T18:11:33.712Z,100.00
2022-10-17T18:14:01.397Z,100.00
2022-10-17T18:16:28.392Z,100.00
2022-10-17T18:18:54.958Z,100.00
2022-10-17T18:21:21.424Z,100.00
2022-10-17T18:23:48.455Z,100.00
2022-10-17T18:26:15.519Z,100.00
2022-10-17T18:31:22.172Z,100.00
2022-10-17T18:33:50.773Z,100.00
2022-10-17T18:36:17.089Z,100.00
2022-10-17T18:38:43.575Z,100.00
2022-10-17T18:41:11.653Z,100.00
2022-10-17T18:43:39.152Z,100.00
2022-10-17T18:46:10.858Z,100.00
2022-10-17T18:48:41.038Z,100.00
2022-10-17T18:51:07.874Z,100.00
2022-10-17T18:53:34.790Z,100.00
2022-10-17T18:56:03.529Z,100.00
2022-10-17T18:58:30.020Z,100.00
2022-10-17T19:01:01.557Z,100.00
2022-10-17T19:03:27.889Z,100.00
2022-10-17T19:05:59.060Z,100.00
2022-10-17T19:08:27.539Z,100.00
2022-10-17T19:10:58.109Z,100.00
2022-10-17T19:13:24.493Z,100.00
2022-10-17T19:15:50.801Z,100.00
2022-10-17T19:18:17.255Z,100.00
2022-10-17T19:20:43.595Z,100.00
2022-10-17T19:23:10.097Z,100.00
2022-10-17T19:25:36.441Z,100.00
2022-10-17T19:28:02.812Z,100.00
2022-10-17T19:30:29.234Z,100.00
2022-10-17T19:32:55.713Z,100.00
2022-10-17T19:35:22.085Z,100.00
2022-10-17T19:37:49.443Z,100.00
2022-10-17T19:40:15.853Z,100.00
2022-10-17T19:42:42.183Z,100.00
2022-10-17T19:45:08.973Z,100.00
2022-10-17T19:47:35.387Z,100.00
2022-10-17T19:50:01.772Z,100.00
2022-10-17T19:52:28.526Z,100.00
2022-10-17T19:54:56.078Z,100.00
2022-10-17T19:57:22.421Z,100.00
2022-10-17T19:59:51.327Z,100.00
2022-10-17T20:02:20.047Z,100.00
2022-10-17T20:04:54.582Z,100.00
2022-10-17T20:07:32.989Z,100.00
2022-10-17T20:09:59.336Z,100.00
2022-10-17T20:12:25.684Z,100.00
2022-10-17T20:14:52.035Z,100.00
2022-10-17T20:17:18.395Z,100.00
2022-10-17T20:19:44.817Z,100.00
2022-10-17T20:22:11.320Z,100.00
2022-10-17T20:24:37.824Z,100.00
2022-10-17T20:27:04.263Z,100.00
2022-10-17T20:29:30.655Z,100.00
2022-10-17T20:31:57.677Z,100.00
2022-10-17T20:34:24.239Z,100.00
2022-10-17T20:36:51.877Z,100.00
2022-10-17T20:39:19.093Z,100.00
2022-10-17T20:41:48.705Z,100.00
2022-10-17T20:44:15.377Z,100.00
2022-10-17T20:46:48.828Z,100.00
2022-10-17T20:49:26.876Z,100.00
2022-10-17T20:51:53.396Z,100.00
2022-10-17T20:54:21.858Z,100.00
2022-10-17T20:56:48.233Z,100.00
2022-10-17T20:59:16.254Z,100.00
2022-10-17T21:01:43.164Z,100.00
2022-10-17T21:04:44.215Z,100.00
2022-10-17T21:06:56.152Z,100.00
2022-10-17T21:09:22.649Z,100.00
2022-10-17T21:11:51.431Z,100.00
2022-10-17T21:14:18.284Z,100.00
2022-10-17T21:16:44.875Z,100.00
2022-10-17T21:19:12.205Z,100.00
2022-10-17T21:21:40.322Z,100.00
2022-10-17T21:24:12.434Z,100.00
2022-10-17T21:26:39.209Z,100.00
2022-10-17T21:29:06.052Z,100.00
2022-10-17T21:31:42.726Z,100.00
2022-10-17T21:34:17.598Z,100.00
2022-10-17T21:36:44.411Z,100.00
2022-10-17T21:39:11.674Z,100.00
2022-10-17T21:41:38.346Z,100.00
2022-10-17T21:44:06.489Z,100.00
2022-10-17T21:46:33.697Z,100.00
2022-10-17T21:49:00.490Z,100.00
2022-10-17T21:51:27.396Z,100.00
2022-10-17T21:53:54.468Z,100.00
2022-10-17T21:56:23.816Z,100.00
2022-10-17T21:58:50.878Z,100.00
2022-10-17T22:01:18.694Z,100.00
2022-10-17T22:03:46.969Z,100.00
2022-10-17T22:06:39.278Z,100.00
2022-10-17T22:09:05.786Z,100.00
2022-10-17T22:11:33.957Z,100.00
2022-10-17T22:14:05.041Z,100.00
2022-10-17T22:16:31.359Z,100.00
2022-10-17T22:19:03.106Z,100.00
2022-10-17T22:21:33.384Z,100.00
2022-10-17T22:24:00.863Z,100.00
2022-10-17T22:26:28.100Z,100.00
2022-10-17T22:28:54.724Z,100.00
2022-10-17T22:31:21.360Z,100.00
2022-10-17T22:33:47.675Z,100.00
2022-10-17T22:36:14.251Z,100.00
2022-10-17T22:38:40.594Z,100.00
2022-10-17T22:41:07.362Z,100.00
2022-10-17T22:43:33.760Z,100.00
2022-10-17T22:46:01.581Z,100.00
2022-10-17T22:48:30.317Z,100.00
2022-10-17T22:50:57.416Z,100.00
2022-10-17T22:53:25.721Z,100.00
2022-10-17T22:56:02.806Z,100.00
2022-10-17T22:58:30.445Z,100.00
2022-10-17T23:00:57.184Z,100.00
2022-10-17T23:03:24.130Z,100.00
2022-10-17T23:05:50.899Z,100.00
2022-10-17T23:08:18.539Z,100.00
2022-10-17T23:10:45.268Z,100.00
2022-10-17T23:13:11.908Z,100.00
2022-10-17T23:15:38.278Z,100.00
2022-10-17T23:18:04.839Z,100.00
2022-10-17T23:20:33.367Z,100.00
2022-10-17T23:22:59.920Z,100.00
2022-10-17T23:25:26.808Z,100.00
2022-10-17T23:27:53.227Z,100.00
2022-10-17T23:30:19.932Z,100.00
2022-10-17T23:32:46.556Z,100.00
2022-10-17T23:35:12.874Z,100.00
2022-10-17T23:37:39.179Z,100.00
2022-10-17T23:40:06.014Z,100.00
2022-10-17T23:42:32.411Z,100.00
2022-10-17T23:44:58.718Z,100.00
2022-10-17T23:47:25.029Z,100.00
2022-10-17T23:49:51.467Z,100.00
2022-10-17T23:52:17.825Z,100.00
2022-10-17T23:54:44.238Z,100.00
2022-10-17T23:57:10.589Z,100.00
2022-10-17T23:59:36.948Z,100.00
